सभी
Tibooburra Airport (Tibooburra, New South Wales) TYB मौसम
|
Tibooburra, New South Wales (TYB / YTIB)
स्वच्छ आकाश
हल्की हवाएं |
|
20 °C |
There is no TAF data available at TYB or any nearby airports.
Recent TYB METAR history
| Date | Time (AEST) | Flight Rules | Wind Dir. | Speed | Type | Height AGL (ft) | Visibility | Temp (°C) | Temp (°F) | Dew Point (°C) | Dew Point (°F) | Rel. Humid. | Pressure | Density Altitude | Remarks |
|---|---|---|---|---|---|---|---|---|---|---|---|---|---|---|---|
| 10-मई | 13:00 | n/a | 110° | 5 kt | Missing | 20° | 68° | 9° | 48° | 49% | 1026 mb | 806 ft | |||
| 10-मई | 12:00 | n/a | 90° | 8 kt | Missing | 19° | 66° | 10° | 50° | 56% | 1027 mb | 657 ft | |||
| 10-मई | 11:00 | n/a | 110° | 8 kt | Missing | 17° | 62° | 9° | 48° | 59% | 1028 mb | 387 ft | |||
| 10-मई | 10:00 | n/a | 120° | 11 kt | Missing | 15° | 59° | 9° | 48° | 67% | 1028 mb | 147 ft | |||
| 10-मई | 09:00 | n/a | 130° | 10 kt | Missing | 14° | 57° | 9° | 48° | 72% | 1028 mb | 27 ft | |||
| 10-मई | 08:00 | n/a | 150° | 7 kt | Missing | 11° | 51° | 9° | 48° | 87% | 1027 mb | -303 ft | |||
| 10-मई | 07:00 | n/a | 150° | 7 kt | Missing | 10° | 50° | 8° | 46° | 87% | 1027 mb | -423 ft | |||
| 10-मई | 06:00 | n/a | 150° | 7 kt | Missing | 10° | 50° | 8° | 46° | 87% | 1026 mb | -394 ft | |||
| 10-मई | 05:00 | n/a | 150° | 7 kt | Missing | 10° | 50° | 8° | 46° | 87% | 1026 mb | -394 ft | |||
| 10-मई | 04:00 | n/a | 140° | 8 kt | Missing | 11° | 51° | 8° | 46° | 82% | 1025 mb | -244 ft | |||
| 10-मई | 03:00 | n/a | 150° | 8 kt | Missing | 12° | 53° | 8° | 46° | 76% | 1026 mb | -154 ft | |||
| 10-मई | 02:00 | n/a | 150° | 7 kt | Missing | 12° | 53° | 8° | 46° | 76% | 1026 mb | -154 ft | |||
| 10-मई | 01:00 | n/a | 160° | 7 kt | Missing | 12° | 53° | 8° | 46° | 76% | 1026 mb | -154 ft | |||
| 10-मई | 00:00 | n/a | 160° | 7 kt | Missing | 12° | 53° | 8° | 46° | 76% | 1026 mb | -154 ft | |||
| 09-मई | 23:00 | n/a | 190° | 7 kt | Missing | 12° | 53° | 8° | 46° | 76% | 1026 mb | -154 ft | |||
| 09-मई | 22:00 | n/a | 190° | 7 kt | Missing | 13° | 55° | 8° | 46° | 72% | 1026 mb | -34 ft | |||
| 09-मई | 21:00 | n/a | 190° | 9 kt | Missing | 14° | 57° | 8° | 46° | 67% | 1026 mb | 86 ft | |||
| 09-मई | 20:00 | n/a | 180° | 7 kt | Missing | 14° | 57° | 8° | 46° | 67% | 1026 mb | 86 ft | |||
| 09-मई | 19:00 | n/a | 170° | 9 kt | Missing | 16° | 60° | 8° | 46° | 59% | 1026 mb | 326 ft | |||
| 09-मई | 18:00 | n/a | 170° | 8 kt | Missing | 17° | 62° | 8° | 46° | 55% | 1025 mb | 476 ft | |||
| 09-मई | 17:00 | n/a | 170° | 10 kt | Missing | 19° | 66° | 8° | 46° | 49% | 1025 mb | 716 ft | |||
| 09-मई | 16:00 | n/a | 170° | 9 kt | Missing | 19° | 66° | 8° | 46° | 49% | 1025 mb | 716 ft | |||
| 09-मई | 15:00 | n/a | 170° | 12 kt | Missing | 20° | 68° | 8° | 46° | 46% | 1025 mb | 836 ft | |||
| 09-मई | 14:00 | n/a | 160° | 9 kt | Missing | 19° | 66° | 8° | 46° | 49% | 1025 mb | 716 ft |
लॉगिन
| Your browser is unsupported. अपना ब्राऊजर अपग्रेड करें |
